Thunder radar more information blitzortung!


Radar de pluja more information rain snow radar


Visita la nostra xarxa de llocs de meteo:

Template documentation
and downloads

And another site



No particular awareness of the weather is required.    There are no Weather-warnings

Pagina Historial Weather Underground text

Diari Resum Setembre 30, 2017 Unitats:  Imperial    Mètric   Tant
« Previous Dia
SegĂźent Dia »
Diari Setmana Mensual Anual Personalitzada
  Maxima: Minima: Media:
Temperatura: 76.5 °F 56.3 °F 66.9 °F
Punt de rosada: 62.4 °F 52.5 °F 58.1 °F
Humitat: 89 % 53 % 74 %
Wind Speed: 9.2 mph 0 mph 2.4 mph
RĂ fegues de vent: 9.2 mph - -
Vent:- - South
Pression baro: 30.2 in 30.1 in -
Precipitacions: 0 in    
Historical Graphs
 
 
Dades de taula per Setembre 30, 2017
Temps Temperatura Punt de rosada Pression baro Vent Wind Speed RĂ fegues de vent Humitat Rainfall Rate (Hourly)
00:00 59.5 °F 55.2 °F 30.2 in SW 1 mph 3 mph 86 % 0 in
00:02 64.8 °F 57.7 °F 30.2 in West 2.3 mph 2.3 mph 78 % 0 in
00:07 64.8 °F 58.1 °F 30.2 in WSW 2.3 mph 2.3 mph 79 % 0 in
00:10 59.5 °F 55.2 °F 30.2 in Calm     86 % 0 in
00:12 64.6 °F 57.9 °F 30.2 in SW 1.2 mph   79 % 0 in
00:20 59.5 °F 55.8 °F 30.2 in Calm   1 mph 87 % 0 in
00:30 59 °F 55 °F 30.2 in Calm   1 mph 87 % 0 in
00:40 58.8 °F 55 °F 30.2 in Calm   1 mph 87 % 0 in
00:50 58.6 °F 54.9 °F 30.2 in Calm     87 % 0 in
01:00 58.5 °F 54.7 °F 30.2 in Calm     87 % 0 in
01:10 57.9 °F 53.8 °F 30.2 in North 1 mph 2 mph 86 % 0 in
01:20 57.9 °F 54.1 °F 30.2 in Calm   1 mph 87 % 0 in
01:30 58.1 °F 54.1 °F 30.2 in Calm   1 mph 87 % 0 in
01:40 58.3 °F 54.7 °F 30.2 in Calm     88 % 0 in
01:50 57.6 °F 53.8 °F 30.2 in SW 1 mph 2 mph 87 % 0 in
02:00 57 °F 53.2 °F 30.2 in Calm   1 mph 87 % 0 in
02:20 56.7 °F 52.5 °F 30.2 in SW 2 mph 2 mph 86 % 0 in
02:30 56.5 °F 52.7 °F 30.2 in Calm   3 mph 87 % 0 in
02:40 56.5 °F 52.7 °F 30.2 in WSW 1 mph 1 mph 87 % 0 in
02:50 56.3 °F 52.5 °F 30.2 in SW 2 mph 2 mph 87 % 0 in
03:00 56.7 °F 53.1 °F 30.2 in Calm   2 mph 88 % 0 in
03:10 56.5 °F 53.1 °F 30.2 in WSW 1 mph   88 % 0 in
03:20 56.5 °F 53.1 °F 30.2 in WSW 1 mph 1 mph 88 % 0 in
03:30 57 °F 53.8 °F 30.2 in Calm     89 % 0 in
03:40 57.2 °F 53.8 °F 30.2 in SW 1 mph 2 mph 88 % 0 in
03:50 57.4 °F 54 °F 30.2 in SW 2 mph 2 mph 88 % 0 in
04:00 57.6 °F 54 °F 30.2 in SW 1 mph 2 mph 88 % 0 in
04:10 58.3 °F 54.7 °F 30.2 in SW 1 mph 2 mph 88 % 0 in
04:20 59.5 °F 56.3 °F 30.2 in Calm     89 % 0 in
04:30 59.9 °F 56.3 °F 30.2 in Calm   1 mph 88 % 0 in
04:40 61.2 °F 57.4 °F 30.2 in SW 2 mph 2 mph 87 % 0 in
04:50 61.9 °F 57.9 °F 30.2 in SW 1 mph 2 mph 87 % 0 in
05:00 62.6 °F 57.9 °F 30.2 in SSW 1 mph 3 mph 85 % 0 in
05:10 63 °F 57.9 °F 30.2 in SSW 1 mph 2 mph 84 % 0 in
05:20 63.5 °F 58.6 °F 30.2 in Calm   1 mph 84 % 0 in
05:30 64.9 °F 59.4 °F 30.2 in West 1 mph 2 mph 82 % 0 in
05:40 66 °F 60.1 °F 30.2 in Calm   2 mph 81 % 0 in
05:50 66 °F 59.7 °F 30.2 in Calm   3 mph 80 % 0 in
06:00 66.2 °F 59.2 °F 30.2 in NE 1 mph 3 mph 78 % 0 in
06:10 67.6 °F 60.4 °F 30.2 in Calm   2 mph 78 % 0 in
11:10 68.2 °F 60.6 °F 30.2 in SW 1.4 mph 2.2 mph 77 % 0 in
11:15 68.5 °F 60.6 °F 30.2 in SW 2.3 mph 2.3 mph 76 % 0 in
11:20 68.9 °F 61 °F 30.2 in SW 4.7 mph 4.7 mph 76 % 0 in
11:25 69.1 °F 61.2 °F 30.2 in South 3.6 mph 3.6 mph 76 % 0 in
11:30 69.6 °F 61.7 °F 30.2 in SSW 3.5 mph 3.5 mph 76 % 0 in
11:35 70 °F 61.7 °F 30.2 in WSW 2.3 mph 2.4 mph 75 % 0 in
11:40 69.8 °F 61.2 °F 30.2 in West 8.1 mph 8.1 mph 74 % 0 in
11:45 70 °F 61.3 °F 30.2 in West 6 mph 6 mph 74 % 0 in
11:50 70.2 °F 61.5 °F 30.2 in SSW 3.5 mph 3.5 mph 74 % 0 in
11:55 71.1 °F 62.1 °F 30.2 in West 4.6 mph 4.6 mph 73 % 0 in
12:00 71.1 °F 62.1 °F 30.2 in West 7.1 mph 7.1 mph 73 % 0 in
12:05 71.1 °F 61.5 °F 30.2 in SW 4.6 mph 4.6 mph 72 % 0 in
12:10 71.1 °F 61.2 °F 30.2 in SSW 4.6 mph 4.6 mph 71 % 0 in
12:15 71.4 °F 61.5 °F 30.2 in SW 3.5 mph 3.5 mph 71 % 0 in
12:20 72.3 °F 62.1 °F 30.2 in SSE 4.6 mph 4.6 mph 70 % 0 in
12:25 73 °F 62.2 °F 30.2 in WSW 6.9 mph 6.9 mph 69 % 0 in
12:30 73.4 °F 62.2 °F 30.2 in WSW 4.6 mph 4.6 mph 68 % 0 in
12:35 73.4 °F 62.2 °F 30.2 in WSW 4.6 mph 4.6 mph 68 % 0 in
12:40 73.8 °F 62.4 °F 30.2 in West 3.5 mph 3.5 mph 68 % 0 in
12:45 73.9 °F 61.9 °F 30.1 in SSW 3.6 mph 3.6 mph 66 % 0 in
12:50 73.8 °F 61.3 °F 30.1 in SW 5.8 mph 5.8 mph 65 % 0 in
13:00 74.7 °F 61.7 °F 30.1 in WSW 2.6 mph 2.6 mph 64 % 0 in
13:05 75.2 °F 61.7 °F 30.1 in SW 6.2 mph 6.2 mph 63 % 0 in
13:10 75.6 °F 61.5 °F 30.1 in WSW 3.8 mph 4 mph 62 % 0 in
13:15 75.7 °F 61 °F 30.1 in SW 5.4 mph 5.4 mph 60 % 0 in
13:20 75.9 °F 61.5 °F 30.1 in SSW 5.8 mph 5.8 mph 61 % 0 in
13:25 76.5 °F 61.5 °F 30.1 in WSW 4.9 mph 4.9 mph 60 % 0 in
13:30 76.1 °F 60.6 °F 30.1 in SW 3.8 mph 3.8 mph 59 % 0 in
13:35 76.3 °F 61 °F 30.1 in WSW 4.7 mph 4.7 mph 59 % 0 in
13:40 76.3 °F 60.4 °F 30.1 in SSW 4.6 mph 4.6 mph 58 % 0 in
13:45 76.5 °F 61.2 °F 30.1 in SSW 6.2 mph 6.2 mph 59 % 0 in
13:50 76.3 °F 59.9 °F 30.1 in SW 6.9 mph 6.9 mph 57 % 0 in
13:55 76.1 °F 60.3 °F 30.1 in WSW 9.2 mph 9.2 mph 58 % 0 in
14:00 76.1 °F 60.3 °F 30.1 in WSW 5.9 mph 5.9 mph 58 % 0 in
14:05 75.9 °F 59.2 °F 30.1 in SW 6.9 mph 6.9 mph 56 % 0 in
14:10 75.9 °F 59.2 °F 30.1 in WSW 4.6 mph 4.6 mph 56 % 0 in
14:15 75.9 °F 59.2 °F 30.1 in SW 4.6 mph 4.6 mph 56 % 0 in
14:20 76.1 °F 59.7 °F 30.1 in WSW 4.6 mph 4.6 mph 57 % 0 in
14:25 76.3 °F 59.9 °F 30.1 in SW 4.6 mph 4.6 mph 57 % 0 in
14:30 76.3 °F 59.4 °F 30.1 in South 6.9 mph 6.9 mph 56 % 0 in
14:35 76.5 °F 59.5 °F 30.1 in SSW 6.9 mph 6.9 mph 56 % 0 in
14:41 76.5 °F 59.5 °F 30.1 in WSW 6.9 mph 6.9 mph 56 % 0 in
14:46 76.5 °F 59.5 °F 30.1 in SW 2.3 mph 2.3 mph 56 % 0 in
14:51 76.3 °F 59.4 °F 30.1 in South 3.5 mph 3.5 mph 56 % 0 in
14:56 76.3 °F 59.9 °F 30.1 in SSW 4.6 mph 4.6 mph 57 % 0 in
15:01 76.1 °F 59.7 °F 30.1 in SSW 3.5 mph 3.5 mph 57 % 0 in
15:06 75.7 °F 59.4 °F 30.1 in SW 4.6 mph 4.6 mph 57 % 0 in
15:11 75.7 °F 59.4 °F 30.1 in WSW 4 mph 4 mph 57 % 0 in
15:16 75.6 °F 59.7 °F 30.1 in SW 4.7 mph 4.7 mph 58 % 0 in
15:21 75.4 °F 59.5 °F 30.1 in SW 3.5 mph 3.5 mph 58 % 0 in
15:26 75 °F 60.3 °F 30.1 in SW 5.8 mph 5.8 mph 60 % 0 in
15:31 74.8 °F 60.1 °F 30.1 in SSW 3.5 mph 3.5 mph 60 % 0 in
15:36 74.8 °F 60.1 °F 30.1 in SW 4.6 mph 4.6 mph 60 % 0 in
15:41 75 °F 60.3 °F 30.1 in SW 3.5 mph 3.5 mph 60 % 0 in
15:46 75 °F 60.3 °F 30.1 in South 5.8 mph 5.8 mph 60 % 0 in
15:51 75.4 °F 60.1 °F 30.1 in SW 2 mph 2 mph 59 % 0 in
15:56 75.6 °F 60.3 °F 30.1 in SSW 1.6 mph 1.6 mph 59 % 0 in
16:01 75.6 °F 58.8 °F 30.1 in WSW 2.3 mph 2.3 mph 56 % 0 in
16:06 75.7 °F 58.5 °F 30.1 in WSW 2.3 mph 2.3 mph 55 % 0 in
16:11 75.7 °F 57.9 °F 30.1 in WNW 1.2 mph   54 % 0 in
16:16 75.7 °F 57.4 °F 30.1 in ENE 1.4 mph 1.4 mph 53 % 0 in
16:21 75.2 °F 57.4 °F 30.1 in NE 4.6 mph 4.6 mph 54 % 0 in
16:26 75 °F 58.3 °F 30.1 in NNE 5.4 mph 5.4 mph 56 % 0 in
16:31 74.5 °F 56.7 °F 30.1 in NNE 9.2 mph 9.2 mph 54 % 0 in
16:36 74.1 °F 55.9 °F 30.1 in North 6.4 mph 6.4 mph 53 % 0 in
16:41 73.6 °F 55.9 °F 30.1 in ENE 4.3 mph 4.3 mph 54 % 0 in
16:46 72.9 °F 55.8 °F 30.1 in WNW 3.5 mph 3.5 mph 55 % 0 in
16:51 72.3 °F 56.1 °F 30.1 in NNW 2.6 mph 2.6 mph 57 % 0 in
16:56 71.8 °F 56.1 °F 30.1 in ENE 3.5 mph 3.5 mph 58 % 0 in
17:01 70.9 °F 56.8 °F 30.1 in North 2.3 mph 2.3 mph 61 % 0 in
17:06 70.2 °F 56.5 °F 30.1 in NNE 2.3 mph 2.3 mph 62 % 0 in
17:11 69.6 °F 56.5 °F 30.1 in NE 2.3 mph 2.3 mph 63 % 0 in
17:16 69.1 °F 56.8 °F 30.1 in NE 2.3 mph 2.3 mph 65 % 0 in
17:21 68.4 °F 57 °F 30.1 in ENE 4.6 mph 4.6 mph 67 % 0 in
17:26 68 °F 57 °F 30.1 in North 1.2 mph 1.2 mph 68 % 0 in
17:31 67.8 °F 57.7 °F 30.1 in NNW 1.2 mph   70 % 0 in
17:36 67.1 °F 57.7 °F 30.1 in ENE 2.3 mph 2.3 mph 72 % 0 in
17:41 66.6 °F 57.6 °F 30.1 in NNE 2.4 mph 2.4 mph 73 % 0 in
17:46 66.6 °F 57.9 °F 30.1 in NNE 2.2 mph 2.2 mph 74 % 0 in
17:51 66 °F 57.9 °F 30.1 in NE 2.3 mph   75 % 0 in
17:56 66.4 °F 57.7 °F 30.1 in WSW 2.3 mph 2.3 mph 74 % 0 in
18:01 66.2 °F 57.9 °F 30.1 in SW 2.3 mph 2.3 mph 75 % 0 in
18:06 66.2 °F 58.5 °F 30.1 in NNW 1.4 mph   76 % 0 in
18:11 65.8 °F 57.7 °F 30.1 in NE 2.2 mph 2.2 mph 75 % 0 in
18:16 65.8 °F 58.5 °F 30.1 in NE 3.5 mph 3.5 mph 77 % 0 in
18:21 65.7 °F 57.9 °F 30.1 in NNE 2.3 mph 2.3 mph 76 % 0 in
18:26 65.8 °F 58.1 °F 30.1 in Calm     76 % 0 in
18:31 65.7 °F 57.9 °F 30.1 in ENE 2.3 mph   76 % 0 in
18:36 65.8 °F 58.5 °F 30.1 in Calm     77 % 0 in
18:41 65.8 °F 58.5 °F 30.1 in Calm     77 % 0 in
18:46 65.8 °F 58.5 °F 30.1 in NNE 2 mph 2 mph 77 % 0 in
18:51 65.8 °F 58.8 °F 30.1 in NNE 2.3 mph 2.3 mph 78 % 0 in
18:56 65.7 °F 58.3 °F 30.1 in NE 2.4 mph   77 % 0 in
19:01 65.5 °F 58.1 °F 30.1 in NE 2.3 mph 2.3 mph 77 % 0 in
19:06 65.5 °F 58.1 °F 30.1 in NNE 2.3 mph 2.3 mph 77 % 0 in
19:11 65.5 °F 58.1 °F 30.1 in NE 2.3 mph 2.3 mph 77 % 0 in
19:16 65.3 °F 57.6 °F 30.1 in NNE 3.5 mph 3.5 mph 76 % 0 in
19:21 65.1 °F 57.4 °F 30.1 in WNW 2.3 mph 2.9 mph 76 % 0 in
19:26 65.1 °F 57.4 °F 30.1 in ENE 2.3 mph 2.3 mph 76 % 0 in
19:31 64.9 °F 57.2 °F 30.1 in NW 2.3 mph 2.3 mph 76 % 0 in
19:36 64.9 °F 56.8 °F 30.1 in WNW 1.2 mph   75 % 0 in
19:41 65.1 °F 57.4 °F 30.1 in WSW 1.2 mph 1.2 mph 76 % 0 in
19:46 64.8 °F 57 °F 30.1 in WSW 1.2 mph   76 % 0 in
19:51 64.8 °F 57 °F 30.1 in Calm     76 % 0 in
19:53 64.6 °F 56.8 °F 30.1 in Calm     76 % 0 in
19:58 64.4 °F 56.7 °F 30.1 in Calm     76 % 0 in
20:03 64.4 °F 56.7 °F 30.1 in West 2.3 mph   76 % 0 in
20:08 64.4 °F 57 °F 30.1 in West 1.2 mph 1.2 mph 77 % 0 in
20:13 64.2 °F 56.8 °F 30.1 in Calm     77 % 0 in
20:18 64 °F 56.7 °F 30.1 in Calm     77 % 0 in
20:23 64 °F 57 °F 30.1 in NE 1.2 mph 1.2 mph 78 % 0 in
20:28 63.9 °F 56.8 °F 30.1 in Calm     78 % 0 in
20:33 63.9 °F 56.8 °F 30.1 in WNW 1.2 mph 1.2 mph 78 % 0 in
20:38 64 °F 57 °F 30.1 in WNW 2.3 mph 2.3 mph 78 % 0 in
20:48 63.9 °F 57.2 °F 30.2 in West 3.5 mph 3.5 mph 79 % 0 in
20:53 63.9 °F 57.2 °F 30.2 in WSW 2.3 mph 2.3 mph 79 % 0 in
20:58 63.9 °F 57.6 °F 30.2 in WSW 2.3 mph 2.3 mph 80 % 0 in
21:03 63.7 °F 57.4 °F 30.2 in Calm     80 % 0 in
21:08 63.7 °F 57.7 °F 30.2 in ESE 2.3 mph 2.3 mph 81 % 0 in
21:13 63.5 °F 57.9 °F 30.2 in East 2.3 mph 2.3 mph 82 % 0 in
21:18 63.1 °F 57.6 °F 30.2 in ENE 1.2 mph   82 % 0 in
21:23 63.1 °F 57.6 °F 30.2 in East 1.2 mph   82 % 0 in
21:28 63 °F 57.4 °F 30.2 in Calm     82 % 0 in
21:33 63 °F 57.4 °F 30.2 in Calm     82 % 0 in
21:38 63 °F 57.4 °F 30.2 in Calm     82 % 0 in
21:43 63 °F 57.4 °F 30.2 in Calm     82 % 0 in
21:48 63 °F 57.7 °F 30.2 in Calm     83 % 0 in
21:53 62.8 °F 57.6 °F 30.2 in Calm     83 % 0 in
21:58 62.8 °F 57.6 °F 30.2 in Calm     83 % 0 in
22:03 62.8 °F 57.9 °F 30.2 in Calm     84 % 0 in
22:08 62.8 °F 57.9 °F 30.2 in NNE 1.2 mph   84 % 0 in
22:13 62.6 °F 57.7 °F 30.2 in Calm     84 % 0 in
22:18 62.6 °F 57.7 °F 30.2 in Calm     84 % 0 in
22:23 62.6 °F 57.7 °F 30.2 in Calm     84 % 0 in
22:28 62.6 °F 57.7 °F 30.2 in WSW 1.2 mph   84 % 0 in
22:33 62.6 °F 57.7 °F 30.2 in Calm     84 % 0 in
22:38 62.4 °F 57.7 °F 30.2 in Calm     85 % 0 in
22:43 62.4 °F 57.7 °F 30.2 in Calm     85 % 0 in
22:48 62.2 °F 57.7 °F 30.2 in Calm     85 % 0 in
22:53 62.4 °F 57.7 °F 30.2 in Calm     85 % 0 in
22:58 62.4 °F 57.7 °F 30.2 in Calm     85 % 0 in
23:03 62.6 °F 57.9 °F 30.2 in ENE 2.3 mph 2.3 mph 85 % 0 in
23:08 62.4 °F 57.7 °F 30.2 in ENE 1.2 mph 1.2 mph 85 % 0 in
23:13 62.4 °F 57.6 °F 30.2 in ENE 2.3 mph 2.3 mph 84 % 0 in
23:18 62.4 °F 57.6 °F 30.2 in Calm     84 % 0 in
23:23 62.6 °F 57.7 °F 30.2 in NNW 1.2 mph 1.2 mph 84 % 0 in
23:28 62.6 °F 57.4 °F 30.2 in ENE 2.3 mph 2.3 mph 83 % 0 in
23:33 62.6 °F 57 °F 30.2 in ENE 1.2 mph   82 % 0 in
23:38 62.6 °F 57 °F 30.2 in NE 2.3 mph 2.3 mph 82 % 0 in
23:43 62.6 °F 56.7 °F 30.2 in NNE 2.3 mph 2.3 mph 81 % 0 in
23:48 62.6 °F 56.7 °F 30.2 in ENE 2.3 mph 2.3 mph 81 % 0 in
23:53 62.6 °F 56.3 °F 30.2 in NNW 2.2 mph 2.2 mph 80 % 0 in
23:58 62.4 °F 56.5 °F 30.2 in Calm     81 % 0 in
Meteo Sesrovires
Elogis d' Weather Underground - 3.5 mb

Guio original per  Jim McMurry - jmcmurry@mwt.net Adaptat per a la plantilla per  Wim van der Kuil - Leuven-Template.eu

Trobareu la nostra informacio del temps tambe a:

Weather Underground

AWEKAS